GW1288 Weather Reports


time (UTC)temp
C
wind
direction
speed
KPH
gust
KPH
rain 1hr
cm
rain 24hr
cm
rain mn
cm
humidity
%
barometer
mb
20220927014743 26 162 0.0 0.0 0.00 0.00 0.00 34 1018.8
20220927014242 26 183 0.0 0.0 0.00 0.00 0.00 34 1018.7
20220927013741 27 161 0.0 0.0 0.00 0.00 0.00 34 1018.8
20220927013241 27 149 0.0 0.0 0.00 0.00 0.00 33 1018.6
20220927012740 27 275 0.0 0.0 0.00 0.00 0.00 33 1018.7
20220927012239 27 160 0.0 0.0 0.00 0.00 0.00 33 1018.6
20220927011739 27 164 0.0 0.0 0.00 0.00 0.00 32 1018.5
20220927011239 27 164 0.0 0.0 0.00 0.00 0.00 32 1018.3
20220927010738 28 162 0.0 0.0 0.00 0.00 0.00 31 1018.3
20220927010237 28 164 0.0 0.0 0.00 0.00 0.00 31 1018.2
20220927005737 28 161 0.0 0.0 0.00 0.00 0.00 31 1017.9
20220927005235 28 164 0.0 0.0 0.00 0.00 0.00 31 1018.2
20220927004733 28 161 0.0 0.0 0.00 0.00 0.00 30 1018.0
20220927004233 28 159 0.0 0.0 0.00 0.00 0.00 30 1017.8
20220927003733 28 161 0.0 0.0 0.00 0.00 0.00 30 1017.8
20220927003233 29 158 0.0 0.0 0.00 0.00 0.00 30 1017.8
20220927002733 30 157 0.0 0.0 0.00 0.00 0.00 29 1017.5
20220927002232 30 172 0.0 0.0 0.00 0.00 0.00 29 1017.5
20220927001730 30 168 0.0 0.0 0.00 0.00 0.00 28 1017.6
20220927001230 31 168 0.0 0.0 0.00 0.00 0.00 28 1017.6
20220927000730 31 159 0.0 0.0 0.00 0.00 0.00 27 1017.7
20220927000229 31 170 0.0 0.0 0.00 0.00 0.00 27 1017.6
20220926235729 31 165 0.0 0.0 0.00 0.00 0.00 28 1017.6
20220926235228 31 136 0.0 1.6 0.00 0.00 0.00 28 1017.6
20220926234727 32 176 0.0 0.0 0.00 0.00 0.00 28 1017.6
20220926234226 32 152 0.0 0.0 0.00 0.00 0.00 28 1017.5
20220926233725 32 160 0.0 0.0 0.00 0.00 0.00 27 1017.4
20220926233223 32 194 0.0 0.0 0.00 0.00 0.00 27 1017.3
20220926232722 33 164 0.0 0.0 0.00 0.00 0.00 27 1017.2
20220926232221 33 159 0.0 0.0 0.00 0.00 0.00 27 1017.2
20220926231721 33 163 0.0 0.0 0.00 0.00 0.00 28 1017.3
20220926231219 33 160 0.0 0.0 0.00 0.00 0.00 27 1017.4
20220926230718 33 176 0.0 0.0 0.00 0.00 0.00 27 1017.3
20220926230218 33 160 0.0 0.0 0.00 0.00 0.00 27 1017.2
20220926225716 33 308 0.0 0.0 0.00 0.00 0.00 27 1017.2
20220926225215 34 206 1.6 4.8 0.00 0.00 0.00 27 1017.1
20220926224655 34 202 1.6 3.2 0.00 0.00 0.00 27 1017.0
20220926224155 33 196 0.0 0.0 0.00 0.00 0.00 28 1017.2
20220926223654 35 169 0.0 0.0 0.00 0.00 0.00 27 1017.1
20220926223153 35 83 1.6 4.8 0.00 0.00 0.00 27 1017.2
20220926222652 34 163 0.0 1.6 0.00 0.00 0.00 28 1017.0
20220926222152 35 162 0.0 0.0 0.00 0.00 0.00 28 1017.1
20220926221652 35 172 0.0 1.6 0.00 0.00 0.00 28 1017.1
20220926221150 35 155 0.0 0.0 0.00 0.00 0.00 27 1017.1
20220926220650 35 265 0.0 1.6 0.00 0.00 0.00 27 1017.2
20220926220147 35 106 0.0 0.0 0.00 0.00 0.00 27 1017.1
20220926215646 35 180 0.0 0.0 0.00 0.00 0.00 28 1017.2
20220926215144 35 152 0.0 1.6 0.00 0.00 0.00 27 1017.0
20220926214643 35 146 0.0 0.0 0.00 0.00 0.00 26 1017.2
20220926214142 35 127 0.0 0.0 0.00 0.00 0.00 26 1017.3
20220926213642 35 135 1.6 3.2 0.00 0.00 0.00 27 1017.2
20220926213141 35 138 0.0 0.0 0.00 0.00 0.00 28 1017.1
20220926212640 34 122 0.0 0.0 0.00 0.00 0.00 29 1017.5
20220926212140 35 149 0.0 0.0 0.00 0.00 0.00 28 1017.3
20220926211640 35 155 0.0 0.0 0.00 0.00 0.00 28 1017.2
20220926211138 35 142 0.0 0.0 0.00 0.00 0.00 28 1017.3
20220926210637 35 149 0.0 1.6 0.00 0.00 0.00 29 1017.4
20220926210136 35 65 0.0 1.6 0.00 0.00 0.00 28 1017.3
20220926205636 35 42 0.0 0.0 0.00 0.00 0.00 30 1017.4
20220926205134 35 61 0.0 1.6 0.00 0.00 0.00 28 1017.4
20220926204634 35 204 1.6 4.8 0.00 0.00 0.00 29 1017.4
20220926204131 35 186 3.2 8.0 0.00 0.00 0.00 28 1017.4
20220926203631 35 145 0.0 0.0 0.00 0.00 0.00 29 1017.4
20220926203131 36 150 1.6 4.8 0.00 0.00 0.00 26 1017.7
20220926202631 36 162 1.6 1.6 0.00 0.00 0.00 26 1017.5
20220926202130 36 29 0.0 0.0 0.00 0.00 0.00 26 1017.4
20220926201630 36 144 0.0 3.2 0.00 0.00 0.00 27 1017.8
20220926201130 35 145 1.6 1.6 0.00 0.00 0.00 27 1017.9
20220926200627 35 199 0.0 1.6 0.00 0.00 0.00 28 1017.9
20220926200126 35 152 0.0 1.6 0.00 0.00 0.00 29 1017.8
20220926195625 35 163 6.4 9.7 0.00 0.00 0.00 28 1018.3
20220926195124 35 171 8.0 11.3 0.00 0.00 0.00 28 1018.2
20220926194623 35 123 0.0 0.0 0.00 0.00 0.00 28 1017.8
20220926194122 35 185 0.0 0.0 0.00 0.00 0.00 28 1018.3
20220926193622 35 148 0.0 0.0 0.00 0.00 0.00 28 1018.5
20220926193121 35 329 1.6 3.2 0.00 0.00 0.00 27 1018.6
20220926192621 35 251 0.0 0.0 0.00 0.00 0.00 28 1018.6
20220926192119 35 147 0.0 0.0 0.00 0.00 0.00 29 1018.7
20220926191617 34 235 0.0 0.0 0.00 0.00 0.00 29 1018.9
20220926191117 35 150 0.0 1.6 0.00 0.00 0.00 28 1019.0
20220926190617 34 299 0.0 1.6 0.00 0.00 0.00 28 1018.9
20220926190116 34 158 0.0 1.6 0.00 0.00 0.00 28 1019.3
20220926185616 34 173 0.0 0.0 0.00 0.00 0.00 28 1019.1
20220926185114 34 116 0.0 0.0 0.00 0.00 0.00 29 1019.3
20220926184614 34 118 0.0 3.2 0.00 0.00 0.00 29 1019.4
20220926184113 34 61 0.0 0.0 0.00 0.00 0.00 29 1019.3
20220926183613 34 172 1.6 3.2 0.00 0.00 0.00 30 1019.4
20220926183112 34 288 1.6 8.0 0.00 0.00 0.00 29 1019.6
20220926182612 33 137 0.0 0.0 0.00 0.00 0.00 30 1019.8
20220926182112 33 145 0.0 1.6 0.00 0.00 0.00 31 1019.6
20220926181612 33 223 4.8 11.3 0.00 0.00 0.00 29 1019.9
20220926181111 33 147 1.6 3.2 0.00 0.00 0.00 29 1019.6
20220926180610 33 133 0.0 0.0 0.00 0.00 0.00 30 1020.0
20220926180106 33 134 0.0 0.0 0.00 0.00 0.00 31 1020.0
20220926175606 33 126 0.0 0.0 0.00 0.00 0.00 30 1020.0
20220926175105 33 210 0.0 0.0 0.00 0.00 0.00 30 1019.9
20220926174604 33 35 1.6 4.8 0.00 0.00 0.00 30 1020.0
20220926174102 33 130 3.2 9.7 0.00 0.00 0.00 31 1020.1
20220926173602 33 130 0.0 0.0 0.00 0.00 0.00 30 1020.3
20220926173100 32 150 0.0 4.8 0.00 0.00 0.00 32 1020.2
20220926172558 32 122 1.6 1.6 0.00 0.00 0.00 32 1020.3
20220926172057 32 128 1.6 3.2 0.00 0.00 0.00 31 1020.6
20220926171557 32 349 1.6 3.2 0.00 0.00 0.00 31 1020.4
20220926171057 32 272 3.2 8.0 0.00 0.00 0.00 31 1020.4
20220926170555 32 143 0.0 0.0 0.00 0.00 0.00 31 1020.6
20220926170055 32 121 0.0 0.0 0.00 0.00 0.00 32 1020.5
20220926165554 32 133 0.0 4.8 0.00 0.00 0.00 32 1020.5
20220926165054 32 172 0.0 3.2 0.00 0.00 0.00 32 1020.7
20220926164553 31 85 0.0 0.0 0.00 0.00 0.00 34 1020.6
20220926164051 31 168 0.0 0.0 0.00 0.00 0.00 33 1020.5
20220926163550 31 140 0.0 0.0 0.00 0.00 0.00 34 1020.7
20220926163048 31 181 0.0 0.0 0.00 0.00 0.00 34 1020.7
20220926162547 31 88 0.0 0.0 0.00 0.00 0.00 34 1020.8
20220926162046 31 124 0.0 0.0 0.00 0.00 0.00 35 1020.7
20220926161546 31 132 0.0 0.0 0.00 0.00 0.00 34 1020.7
20220926161045 30 33 0.0 0.0 0.00 0.00 0.00 35 1020.9
20220926160544 30 204 1.6 3.2 0.00 0.00 0.00 35 1020.9
20220926160043 30 204 0.0 1.6 0.00 0.00 0.00 35 1021.0
20220926155542 30 147 1.6 3.2 0.00 0.00 0.00 35 1020.8
20220926155040 30 57 0.0 1.6 0.00 0.00 0.00 35 1020.7
20220926154538 30 120 0.0 0.0 0.00 0.00 0.00 37 1020.9
20220926154038 29 109 0.0 0.0 0.00 0.00 0.00 38 1020.6
20220926153536 29 146 0.0 1.6 0.00 0.00 0.00 37 1020.5
20220926153034 29 81 1.6 4.8 0.00 0.00 0.00 37 1020.5
20220926152533 28 169 0.0 0.0 0.00 0.00 0.00 37 1020.8
20220926152031 29 191 0.0 0.0 0.00 0.00 0.00 38 1020.7
20220926151531 28 123 0.0 0.0 0.00 0.00 0.00 40 1020.5
20220926151031 28 144 0.0 1.6 0.00 0.00 0.00 39 1020.4
20220926150531 28 124 0.0 0.0 0.00 0.00 0.00 41 1020.2
20220926150030 27 167 0.0 1.6 0.00 0.00 0.00 41 1020.4
20220926145528 27 121 0.0 1.6 0.00 0.00 0.00 41 1020.3
20220926145027 27 130 0.0 0.0 0.00 0.00 0.00 43 1020.2
20220926144525 27 138 0.0 0.0 0.00 0.00 0.00 44 1020.1
20220926144024 27 7 0.0 3.2 0.00 0.00 0.00 45 1019.9
20220926143522 27 87 0.0 0.0 0.00 0.00 0.00 46 1020.2
20220926143021 26 79 0.0 0.0 0.00 0.00 0.00 48 1020.1
20220926142520 26 148 0.0 0.0 0.00 0.00 0.00 49 1020.0
20220926142018 26 147 0.0 0.0 0.00 0.00 0.00 50 1019.8
20220926141517 26 97 0.0 1.6 0.00 0.00 0.00 53 1019.7
20220926141016 26 99 0.0 0.0 0.00 0.00 0.00 54 1019.9
20220926140516 26 109 0.0 1.6 0.00 0.00 0.00 55 1019.9
20220926140015 26 67 1.6 4.8 0.00 0.00 0.00 55 1019.8
20220926135514 25 22 1.6 4.8 0.00 0.00 0.00 56 1019.6
20220926135013 25 36 0.0 0.0 0.00 0.00 0.00 58 1019.4
20220926134513 25 71 1.6 1.6 0.00 0.00 0.00 59 1019.7
20220926134012 25 151 0.0 0.0 0.00 0.00 0.00 62 1019.5
20220926133511 25 85 0.0 0.0 0.00 0.00 0.00 64 1019.5
20220926133009 24 112 0.0 0.0 0.00 0.00 0.00 65 1019.5
20220926132508 24 103 3.2 8.0 0.00 0.00 0.00 66 1019.5
20220926132009 23 43 3.2 4.8 0.00 0.00 0.00 68 1019.6
20220926131508 23 148 0.0 1.6 0.00 0.00 0.00 69 1019.3
20220926131008 22 173 3.2 8.0 0.00 0.00 0.00 73 1019.5
20220926130508 22 181 0.0 0.0 0.00 0.00 0.00 77 1019.5
20220926130008 22 200 3.2 4.8 0.00 0.00 0.00 79 1019.3
20220926125508 21 176 0.0 1.6 0.00 0.00 0.00 82 1019.1
20220926125008 21 180 1.6 3.2 0.00 0.00 0.00 83 1019.2
20220926124508 21 245 4.8 8.0 0.00 0.00 0.00 83 1019.2
20220926124007 21 231 4.8 4.8 0.00 0.00 0.00 83 1019.0
20220926123507 21 206 3.2 4.8 0.00 0.00 0.00 83 1019.2
20220926123005 21 247 4.8 8.0 0.00 0.00 0.00 84 1018.9
20220926122503 21 234 6.4 9.7 0.00 0.00 0.00 84 1018.9
20220926122001 21 167 4.8 4.8 0.00 0.00 0.00 84 1018.9
20220926121502 21 233 3.2 8.0 0.00 0.00 0.00 84 1018.6
20220926121001 21 227 1.6 4.8 0.00 0.00 0.00 84 1018.6
20220926120500 21 189 1.6 3.2 0.00 0.00 0.00 84 1018.6
20220926120000 21 218 3.2 3.2 0.00 0.00 0.00 84 1018.5
20220926115459 21 251 1.6 1.6 0.00 0.00 0.00 85 1018.7
20220926114959 21 217 4.8 8.0 0.00 0.00 0.00 85 1018.4
20220926114457 21 144 1.6 3.2 0.00 0.00 0.00 86 1018.5
20220926113956 21 186 1.6 3.2 0.00 0.00 0.00 86 1018.4
20220926113456 21 165 0.0 0.0 0.00 0.00 0.00 87 1018.5
20220926112954 21 229 3.2 3.2 0.00 0.00 0.00 87 1018.6
20220926112454 21 161 0.0 0.0 0.00 0.00 0.00 88 1018.5
20220926111953 21 226 1.6 3.2 0.00 0.00 0.00 88 1018.2
20220926111453 21 221 4.8 8.0 0.00 0.00 0.00 88 1018.2
20220926110951 21 244 4.8 9.7 0.00 0.00 0.00 89 1017.9
20220926110451 21 163 1.6 3.2 0.00 0.00 0.00 89 1018.0
20220926105950 21 163 0.0 0.0 0.00 0.00 0.00 89 1018.2
20220926105450 21 197 3.2 3.2 0.00 0.00 0.00 89 1017.9
20220926104949 21 159 1.6 3.2 0.00 0.00 0.00 90 1017.8
20220926104448 21 235 1.6 4.8 0.00 0.00 0.00 90 1018.0
20220926103947 21 236 3.2 4.8 0.00 0.00 0.00 90 1017.7
20220926103445 21 209 3.2 3.2 0.00 0.00 0.00 89 1017.9
20220926102943 21 193 1.6 1.6 0.00 0.00 0.00 89 1017.8
20220926102443 21 195 3.2 3.2 0.00 0.00 0.00 89 1017.9
20220926101941 21 236 4.8 8.0 0.00 0.00 0.00 89 1017.8
20220926101440 21 194 3.2 3.2 0.00 0.00 0.00 89 1017.6
20220926100939 21 149 4.8 8.0 0.00 0.00 0.00 89 1017.7
20220926100439 21 186 3.2 4.8 0.00 0.00 0.00 88 1017.7
20220926095939 21 251 6.4 9.7 0.00 0.00 0.00 88 1017.5
20220926095437 21 253 3.2 3.2 0.00 0.00 0.00 88 1017.1
20220926094937 21 186 1.6 3.2 0.00 0.00 0.00 88 1017.3
20220926094437 21 252 4.8 4.8 0.00 0.00 0.00 88 1017.3
20220926093936 21 207 3.2 3.2 0.00 0.00 0.00 88 1017.4
20220926093436 21 175 1.6 3.2 0.00 0.00 0.00 88 1017.3
20220926092936 21 244 1.6 3.2 0.00 0.00 0.00 87 1017.2
20220926092436 21 195 0.0 0.0 0.00 0.00 0.00 87 1017.1
20220926091934 21 160 0.0 0.0 0.00 0.00 0.00 87 1017.4
20220926091433 21 166 1.6 1.6 0.00 0.00 0.00 86 1017.2
20220926090932 21 217 3.2 3.2 0.00 0.00 0.00 86 1017.2
20220926090432 21 260 3.2 3.2 0.00 0.00 0.00 85 1017.5
20220926085930 21 168 1.6 3.2 0.00 0.00 0.00 85 1017.0
20220926085428 22 159 0.0 0.0 0.00 0.00 0.00 84 1017.3
20220926084927 22 196 0.0 0.0 0.00 0.00 0.00 84 1017.3
20220926084426 22 171 0.0 0.0 0.00 0.00 0.00 83 1017.3
20220926083926 23 167 0.0 0.0 0.00 0.00 0.00 83 1017.1
20220926083424 23 173 0.0 0.0 0.00 0.00 0.00 83 1017.2
20220926082923 23 166 0.0 0.0 0.00 0.00 0.00 83 1017.2
20220926082422 23 160 0.0 0.0 0.00 0.00 0.00 83 1017.2
20220926081921 23 155 0.0 0.0 0.00 0.00 0.00 83 1017.3
20220926081421 23 165 0.0 0.0 0.00 0.00 0.00 82 1017.2
20220926080921 23 174 0.0 0.0 0.00 0.00 0.00 81 1017.4
20220926080420 24 161 0.0 0.0 0.00 0.00 0.00 81 1017.2
20220926075919 24 155 0.0 0.0 0.00 0.00 0.00 81 1017.1
20220926075418 24 153 0.0 0.0 0.00 0.00 0.00 80 1017.4
20220926074916 24 183 0.0 0.0 0.00 0.00 0.00 80 1017.4
20220926074416 24 176 0.0 0.0 0.00 0.00 0.00 80 1017.4
20220926073915 24 182 0.0 0.0 0.00 0.00 0.00 80 1017.6
20220926073415 23 201 1.6 1.6 0.00 0.00 0.00 79 1017.5
20220926072915 25 211 0.0 0.0 0.00 0.00 0.00 77 1017.6
20220926072413 25 176 0.0 0.0 0.00 0.00 0.00 77 1017.5
20220926071912 25 165 0.0 0.0 0.00 0.00 0.00 77 1017.4
20220926071410 25 166 0.0 0.0 0.00 0.00 0.00 77 1017.5
20220926070909 25 165 0.0 0.0 0.00 0.00 0.00 77 1017.5
20220926070407 25 149 0.0 0.0 0.00 0.00 0.00 77 1017.7
20220926065906 25 156 0.0 0.0 0.00 0.00 0.00 77 1017.4
20220926065404 25 158 0.0 0.0 0.00 0.00 0.00 77 1017.5
20220926064903 25 145 0.0 0.0 0.00 0.00 0.00 77 1017.4
20220926064402 25 146 0.0 1.6 0.00 0.00 0.00 77 1017.4
20220926063901 25 147 0.0 1.6 0.00 0.00 0.00 77 1017.5
20220926063400 25 135 0.0 1.6 0.00 0.00 0.00 76 1017.6
20220926062858 25 134 0.0 1.6 0.00 0.00 0.00 76 1017.4
20220926062358 25 96 1.6 3.2 0.00 0.00 0.00 76 1017.4
20220926061856 25 100 3.2 3.2 0.00 0.00 0.00 76 1017.6
20220926061355 25 111 3.2 3.2 0.00 0.00 0.00 76 1017.5
20220926060855 25 116 3.2 3.2 0.00 0.00 0.00 75 1017.9
20220926060354 25 125 3.2 4.8 0.00 0.00 0.00 75 1017.8
20220926055854 25 118 0.0 0.0 0.00 0.00 0.00 75 1017.5
20220926055352 25 117 1.6 3.2 0.00 0.00 0.00 76 1017.6
20220926054850 25 140 0.0 0.0 0.00 0.00 0.00 76 1017.6
20220926054348 25 155 0.0 0.0 0.00 0.00 0.00 76 1017.6
20220926053847 25 145 0.0 0.0 0.00 0.00 0.00 76 1017.7
20220926053347 25 129 0.0 0.0 0.00 0.00 0.00 76 1017.6
20220926052846 25 131 0.0 0.0 0.00 0.00 0.00 76 1017.7
20220926052346 25 142 0.0 0.0 0.00 0.00 0.00 76 1017.7
20220926051846 26 123 0.0 0.0 0.00 0.00 0.00 76 1017.8
20220926051344 26 130 0.0 1.6 0.00 0.00 0.00 75 1017.9
20220926050843 26 104 3.2 4.8 0.00 0.00 0.00 75 1017.7
20220926050343 26 94 1.6 3.2 0.00 0.00 0.00 75 1017.9
20220926045844 26 87 4.8 4.8 0.00 0.00 0.00 75 1018.2
20220926045342 26 124 3.2 3.2 0.00 0.00 0.00 75 1017.9
20220926044840 26 117 3.2 3.2 0.00 0.00 0.00 75 1017.9
20220926044339 26 71 3.2 3.2 0.00 0.00 0.00 74 1017.8
20220926043837 26 89 3.2 3.2 0.00 0.00 0.00 74 1017.9
20220926043336 26 97 3.2 3.2 0.00 0.00 0.00 73 1017.8
20220926042835 26 75 6.4 8.0 0.00 0.00 0.00 73 1017.9
20220926042335 26 120 0.0 0.0 0.00 0.00 0.00 73 1017.8
20220926041834 26 105 3.2 3.2 0.00 0.00 0.00 72 1017.4
20220926041332 26 107 3.2 3.2 0.00 0.00 0.00 71 1017.8
20220926040832 27 90 3.2 4.8 0.00 0.00 0.00 70 1017.8
20220926040332 27 82 0.0 1.6 0.00 0.00 0.00 69 1017.5
20220926035832 27 78 0.0 0.0 0.00 0.00 0.00 68 1017.5
20220926035332 27 81 1.6 3.2 0.00 0.00 0.00 68 1017.5
20220926034831 27 107 3.2 3.2 0.00 0.00 0.00 67 1017.4
20220926034331 27 38 0.0 1.6 0.00 0.00 0.00 67 1017.5
20220926033830 27 74 4.8 4.8 0.00 0.00 0.00 67 1017.5
20220926033330 27 53 3.2 4.8 0.00 0.00 0.00 67 1017.5
20220926032828 27 85 0.0 0.0 0.00 0.00 0.00 67 1017.3
20220926032327 27 77 4.8 4.8 0.00 0.00 0.00 67 1017.3
20220926031827 27 75 3.2 4.8 0.00 0.00 0.00 67 1017.3
20220926031326 27 61 0.0 0.0 0.00 0.00 0.00 67 1017.3
20220926030825 27 119 1.6 3.2 0.00 0.00 0.00 66 1017.2
20220926030323 28 83 0.0 0.0 0.00 0.00 0.00 66 1017.2
20220926025821 27 113 0.0 0.0 0.00 0.00 0.00 66 1017.2
20220926025321 28 125 0.0 0.0 0.00 0.00 0.00 66 1017.0
20220926024819 28 81 0.0 0.0 0.00 0.00 0.00 66 1016.9
20220926024318 28 83 0.0 0.0 0.00 0.00 0.00 65 1016.9
20220926023816 28 101 0.0 1.6 0.00 0.00 0.00 65 1017.0
20220926023314 28 150 0.0 0.0 0.00 0.00 0.00 64 1016.5
20220926022813 28 87 0.0 0.0 0.00 0.00 0.00 64 1016.6
20220926022313 28 99 0.0 0.0 0.00 0.00 0.00 64 1016.7
20220926021812 28 110 0.0 0.0 0.00 0.00 0.00 64 1016.7
20220926021311 28 101 0.0 0.0 0.00 0.00 0.00 64 1016.3
20220926020809 28 109 0.0 0.0 0.00 0.00 0.00 63 1016.3
20220926020309 28 117 0.0 0.0 0.00 0.00 0.00 63 1016.2
20220926015807 28 122 0.0 0.0 0.00 0.00 0.00 63 1016.1
20220926015308 28 81 0.0 0.0 0.00 0.00 0.00 63 1016.1